createdAt,value
2023-04-07T00:00:24.577Z,12.15
2023-04-07T00:02:51.675Z,12.63
2023-04-07T00:05:18.249Z,12.52
2023-04-07T00:07:55.074Z,11.52
2023-04-07T00:10:23.482Z,12.68
2023-04-07T00:12:49.816Z,12.18
2023-04-07T00:15:16.528Z,11.70
2023-04-07T00:17:42.972Z,12.85
2023-04-07T00:20:09.592Z,10.30
2023-04-07T00:22:35.940Z,11.75
2023-04-07T00:25:02.274Z,11.75
2023-04-07T00:27:28.607Z,12.10
2023-04-07T00:29:55.388Z,11.60
2023-04-07T00:32:22.464Z,11.90
2023-04-07T00:34:48.949Z,13.70
2023-04-07T00:37:15.505Z,12.18
2023-04-07T00:39:41.973Z,12.80
2023-04-07T00:42:08.484Z,13.93
2023-04-07T00:44:34.844Z,14.75
2023-04-07T00:47:01.315Z,16.30
2023-04-07T00:49:28.450Z,14.75
2023-04-07T00:51:56.023Z,17.98
2023-04-07T00:54:23.952Z,15.95
2023-04-07T00:56:51.076Z,14.90
2023-04-07T00:59:17.820Z,17.75
2023-04-07T01:02:17.760Z,19.05
2023-04-07T01:04:51.602Z,23.52
2023-04-07T01:07:26.469Z,19.95
2023-04-07T01:10:09.757Z,21.63
2023-04-07T01:13:15.480Z,21.35
2023-04-07T01:15:45.924Z,20.30
2023-04-07T01:18:22.164Z,25.50
2023-04-07T01:20:51.134Z,21.00
2023-04-07T01:23:50.945Z,24.10
2023-04-07T01:26:20.460Z,20.58
2023-04-07T01:29:03.069Z,21.85
2023-04-07T01:31:30.376Z,20.33
2023-04-07T01:34:00.357Z,24.45
2023-04-07T01:36:31.480Z,23.33
2023-04-07T01:38:59.654Z,21.05
2023-04-07T01:41:26.966Z,22.52
2023-04-07T01:43:55.398Z,24.63
2023-04-07T01:46:23.790Z,25.90
2023-04-07T01:48:51.443Z,23.73
2023-04-07T01:51:19.700Z,25.08
2023-04-07T01:53:47.484Z,20.75
2023-04-07T01:56:14.325Z,25.65
2023-04-07T01:58:41.245Z,21.85
2023-04-07T02:01:10.916Z,21.23
2023-04-07T02:03:57.003Z,22.70
2023-04-07T02:06:32.008Z,22.88
2023-04-07T02:09:04.315Z,24.98
2023-04-07T02:11:32.785Z,20.60
2023-04-07T02:14:04.457Z,19.77
2023-04-07T02:16:36.094Z,23.20
2023-04-07T02:19:03.508Z,21.73
2023-04-07T02:21:30.632Z,19.75
2023-04-07T02:23:57.115Z,19.25
2023-04-07T02:26:23.950Z,16.80
2023-04-07T02:28:50.400Z,18.17
2023-04-07T02:31:17.135Z,18.00
2023-04-07T02:33:43.457Z,18.30
2023-04-07T02:36:09.778Z,14.98
2023-04-07T02:38:36.411Z,17.73
2023-04-07T02:41:04.079Z,14.48
2023-04-07T02:43:30.382Z,18.80
2023-04-07T02:45:56.853Z,15.95
2023-04-07T02:48:23.341Z,16.05
2023-04-07T02:50:49.641Z,15.75
2023-04-07T02:53:16.046Z,16.45
2023-04-07T02:55:42.407Z,12.82
2023-04-07T02:58:08.939Z,13.05
2023-04-07T03:00:40.260Z,14.18
2023-04-07T03:03:10.923Z,14.10
2023-04-07T03:05:40.244Z,13.27
2023-04-07T03:08:09.539Z,13.05
2023-04-07T03:10:36.806Z,13.30
2023-04-07T03:13:03.305Z,13.27
2023-04-07T03:15:31.107Z,14.93
2023-04-07T03:17:57.502Z,14.57
2023-04-07T03:20:23.877Z,15.35
2023-04-07T03:22:50.223Z,16.00
2023-04-07T03:25:27.415Z,13.30
2023-04-07T03:27:54.618Z,14.25
2023-04-07T03:30:21.568Z,12.13
2023-04-07T03:32:48.136Z,15.95
2023-04-07T03:35:15.197Z,15.60
2023-04-07T03:37:43.936Z,16.15
2023-04-07T03:40:14.776Z,11.80
2023-04-07T03:42:41.381Z,15.50
2023-04-07T03:45:10.388Z,14.65
2023-04-07T03:47:41.977Z,18.23
2023-04-07T03:50:09.354Z,16.02
2023-04-07T03:52:45.452Z,17.05
2023-04-07T03:55:22.260Z,16.10
2023-04-07T03:57:51.343Z,17.15
2023-04-07T04:00:18.094Z,19.80
2023-04-07T04:02:54.017Z,16.48
2023-04-07T04:05:20.442Z,18.45
2023-04-07T04:07:47.379Z,18.05
2023-04-07T04:10:14.158Z,14.95
2023-04-07T04:12:43.289Z,14.65
2023-04-07T04:15:12.429Z,16.10
2023-04-07T04:17:39.688Z,15.65
2023-04-07T04:20:08.347Z,16.40
2023-04-07T04:22:42.776Z,16.65
2023-04-07T04:25:09.871Z,18.60
2023-04-07T04:27:36.687Z,17.42
2023-04-07T04:30:14.241Z,14.75
2023-04-07T04:32:49.538Z,15.15
2023-04-07T04:35:19.031Z,13.65
2023-04-07T04:37:57.742Z,14.27
2023-04-07T04:40:24.208Z,14.80
2023-04-07T04:42:51.338Z,15.27
2023-04-07T04:45:20.325Z,15.23
2023-04-07T04:47:48.282Z,15.70
2023-04-07T04:50:16.160Z,14.73
2023-04-07T04:52:44.961Z,14.77
2023-04-07T04:55:18.889Z,19.23
2023-04-07T04:57:46.341Z,15.75
2023-04-07T05:02:46.980Z,15.25
2023-04-07T05:05:15.367Z,15.48
2023-04-07T05:07:43.149Z,15.52
2023-04-07T05:10:12.629Z,14.45
2023-04-07T05:12:45.863Z,15.77
2023-04-07T05:15:12.325Z,14.18
2023-04-07T05:17:38.797Z,12.77
2023-04-07T05:20:07.175Z,15.63
2023-04-07T05:22:37.209Z,14.13
2023-04-07T05:25:05.764Z,14.80
2023-04-07T05:27:32.918Z,13.93
2023-04-07T05:30:03.277Z,17.45
2023-04-07T05:32:33.533Z,19.73
2023-04-07T05:35:06.615Z,15.48
2023-04-07T05:37:36.050Z,16.35
2023-04-07T05:40:04.908Z,15.43
2023-04-07T05:42:31.292Z,17.15
2023-04-07T05:44:58.217Z,14.95
2023-04-07T05:47:26.563Z,15.52
2023-04-07T05:49:54.072Z,17.00
2023-04-07T05:52:20.851Z,16.08
2023-04-07T05:54:53.705Z,16.95
2023-04-07T05:57:21.272Z,15.57
2023-04-07T05:59:48.550Z,18.83
2023-04-07T06:02:15.089Z,16.85
2023-04-07T06:04:43.997Z,15.52
2023-04-07T06:07:15.043Z,18.30
2023-04-07T06:09:42.910Z,17.88
2023-04-07T06:12:10.680Z,17.17
2023-04-07T06:14:37.116Z,16.80
2023-04-07T06:17:03.612Z,18.10
2023-04-07T06:19:30.015Z,16.48
2023-04-07T06:21:56.319Z,16.25
2023-04-07T06:24:25.014Z,17.50
2023-04-07T06:26:54.714Z,18.25
2023-04-07T06:29:21.141Z,17.55
2023-04-07T06:31:47.474Z,17.25
2023-04-07T06:34:13.769Z,18.42
2023-04-07T06:36:40.161Z,20.05
2023-04-07T06:39:06.627Z,16.88
2023-04-07T06:41:32.966Z,18.17
2023-04-07T06:43:59.325Z,19.95
2023-04-07T06:46:26.658Z,18.48
2023-04-07T06:48:53.110Z,18.20
2023-04-07T06:51:19.414Z,17.52
2023-04-07T06:53:47.392Z,19.33
2023-04-07T06:56:14.296Z,18.25
2023-04-07T06:58:40.635Z,17.63
2023-04-07T07:01:07.078Z,16.83
2023-04-07T07:03:33.772Z,16.08
2023-04-07T07:06:01.121Z,18.88
2023-04-07T07:08:29.122Z,19.70
2023-04-07T07:10:56.021Z,18.98
2023-04-07T07:13:24.106Z,19.50
2023-04-07T07:15:51.269Z,20.25
2023-04-07T07:18:18.546Z,20.20
2023-04-07T07:20:45.856Z,23.05
2023-04-07T07:23:12.511Z,17.50
2023-04-07T07:25:39.122Z,21.02
2023-04-07T07:28:05.563Z,19.88
2023-04-07T07:30:31.959Z,19.35
2023-04-07T07:32:58.438Z,20.42
2023-04-07T07:35:25.341Z,18.67
2023-04-07T07:37:52.535Z,22.05
2023-04-07T07:40:18.956Z,19.70
2023-04-07T07:42:46.127Z,21.73
2023-04-07T07:45:13.798Z,20.58
2023-04-07T07:47:40.948Z,22.73
2023-04-07T07:50:07.499Z,22.58
2023-04-07T07:52:33.839Z,31.45
2023-04-07T07:55:00.183Z,23.42
2023-04-07T07:57:26.520Z,24.75
2023-04-07T07:59:53.390Z,26.00
2023-04-07T08:02:19.766Z,24.13
2023-04-07T08:04:46.248Z,24.83
2023-04-07T08:07:12.658Z,22.75
2023-04-07T08:09:39.217Z,31.00
2023-04-07T08:12:05.525Z,32.55
2023-04-07T08:14:31.909Z,34.33
2023-04-07T08:16:58.206Z,32.45
2023-04-07T08:19:24.676Z,23.17
2023-04-07T08:21:51.011Z,23.88
2023-04-07T08:24:18.331Z,31.67
2023-04-07T08:26:45.650Z,29.05
2023-04-07T08:29:12.090Z,25.10
2023-04-07T08:31:38.495Z,24.75
2023-04-07T08:34:04.885Z,27.45
2023-04-07T08:36:31.386Z,28.13
2023-04-07T08:38:58.853Z,27.88
2023-04-07T08:41:33.193Z,34.60
2023-04-07T08:44:01.742Z,32.58
2023-04-07T08:46:30.252Z,26.65
2023-04-07T08:48:57.616Z,29.00
2023-04-07T08:51:29.017Z,27.30
2023-04-07T08:54:05.107Z,28.35
2023-04-07T08:56:33.985Z,27.88
2023-04-07T08:59:02.530Z,29.75
2023-04-07T09:01:29.536Z,27.40
2023-04-07T09:03:58.080Z,33.25
2023-04-07T09:06:25.027Z,33.42
2023-04-07T09:08:51.327Z,33.78
2023-04-07T09:11:17.696Z,30.85
2023-04-07T09:13:44.085Z,30.98
2023-04-07T09:16:10.976Z,27.98
2023-04-07T09:18:37.568Z,29.17
2023-04-07T09:21:05.357Z,28.70
2023-04-07T09:23:34.490Z,31.33
2023-04-07T09:26:20.155Z,24.52
2023-04-07T09:28:48.819Z,27.45
2023-04-07T09:31:15.326Z,27.75
2023-04-07T09:33:41.679Z,25.48
2023-04-07T09:36:08.163Z,27.60
2023-04-07T09:38:39.426Z,23.88
2023-04-07T09:43:37.965Z,24.63
2023-04-07T09:46:11.492Z,20.38
2023-04-07T09:48:38.936Z,27.85
2023-04-07T09:51:07.750Z,27.30
2023-04-07T09:53:50.773Z,28.67
2023-04-07T09:56:18.795Z,29.38
2023-04-07T09:58:46.841Z,28.65
2023-04-07T10:01:14.969Z,27.40
2023-04-07T10:03:41.387Z,25.88
2023-04-07T10:06:07.830Z,25.30
2023-04-07T10:08:40.558Z,25.45
2023-04-07T10:11:07.245Z,23.30
2023-04-07T10:13:36.365Z,21.45
2023-04-07T10:16:07.201Z,23.08
2023-04-07T10:18:35.418Z,25.65
2023-04-07T10:21:04.359Z,25.20
2023-04-07T10:23:43.768Z,26.33
2023-04-07T10:26:11.546Z,24.20
2023-04-07T10:28:41.347Z,24.13
2023-04-07T10:31:08.243Z,24.13
2023-04-07T10:33:49.911Z,23.90
2023-04-07T10:36:21.972Z,24.17
2023-04-07T10:39:06.644Z,26.02
2023-04-07T10:41:37.042Z,24.25
2023-04-07T10:44:07.939Z,23.05
2023-04-07T10:46:47.036Z,19.40
2023-04-07T10:49:14.424Z,21.48
2023-04-07T10:51:42.575Z,18.95
2023-04-07T10:54:22.843Z,19.90
2023-04-07T10:57:10.825Z,18.08
2023-04-07T10:59:39.828Z,15.00
2023-04-07T11:02:12.133Z,15.27
2023-04-07T11:04:40.646Z,17.30
2023-04-07T11:07:07.287Z,83.30
2023-04-07T11:09:33.712Z,22.23
2023-04-07T11:12:00.154Z,14.77
2023-04-07T11:14:28.012Z,15.68
2023-04-07T11:16:54.618Z,15.50
2023-04-07T11:19:21.219Z,14.30
2023-04-07T11:21:47.733Z,15.88
2023-04-07T11:24:39.243Z,14.95
2023-04-07T11:27:06.700Z,39.20
2023-04-07T11:29:34.592Z,22.65
2023-04-07T11:32:02.569Z,20.13
2023-04-07T11:34:30.260Z,14.43
2023-04-07T11:36:59.583Z,13.05
2023-04-07T11:39:31.276Z,32.33
2023-04-07T11:41:57.569Z,12.90
2023-04-07T11:44:26.191Z,13.15
2023-04-07T11:46:56.992Z,17.40
2023-04-07T11:49:25.821Z,17.13
2023-04-07T11:52:07.097Z,10.52
2023-04-07T11:57:12.503Z,165.23
2023-04-07T11:59:40.712Z,117.20
2023-04-07T12:02:08.191Z,28.05
2023-04-07T12:04:36.542Z,15.70
2023-04-07T12:07:10.746Z,12.52
2023-04-07T12:09:37.871Z,13.85
2023-04-07T12:12:06.336Z,20.40
2023-04-07T12:14:32.860Z,32.92
2023-04-07T12:17:01.486Z,28.80
2023-04-07T12:19:29.332Z,21.30
2023-04-07T12:21:56.772Z,17.58
2023-04-07T12:24:23.726Z,21.30
2023-04-07T12:26:50.119Z,22.77
2023-04-07T12:29:17.043Z,22.98
2023-04-07T12:31:43.728Z,17.33
2023-04-07T12:34:10.076Z,14.02
2023-04-07T12:36:36.447Z,14.18
2023-04-07T12:39:02.830Z,15.73
2023-04-07T12:41:29.142Z,14.05
2023-04-07T12:43:55.511Z,13.02
2023-04-07T12:46:21.931Z,16.55
2023-04-07T12:48:48.358Z,13.43
2023-04-07T12:51:14.918Z,15.80
2023-04-07T12:53:41.380Z,15.15
2023-04-07T12:56:07.920Z,10.18
2023-04-07T12:58:34.374Z,8.90
2023-04-07T13:01:00.848Z,7.75
2023-04-07T13:03:27.456Z,8.93
2023-04-07T13:05:55.277Z,7.35
2023-04-07T13:08:21.964Z,7.32
2023-04-07T13:10:48.319Z,14.05
2023-04-07T13:13:14.906Z,6.38
2023-04-07T13:15:41.254Z,5.53
2023-04-07T13:18:08.102Z,6.20
2023-04-07T13:20:34.534Z,8.52
2023-04-07T13:23:06.880Z,9.27
2023-04-07T13:25:36.170Z,28.42
2023-04-07T13:28:02.530Z,78.55
2023-04-07T13:30:28.982Z,24.70
2023-04-07T13:32:55.583Z,5.07
2023-04-07T13:35:21.948Z,3.30
2023-04-07T13:37:48.357Z,3.08
2023-04-07T13:40:14.709Z,3.65
2023-04-07T13:42:41.090Z,6.53
2023-04-07T13:45:07.875Z,28.73
2023-04-07T13:47:35.182Z,10.93
2023-04-07T13:50:02.533Z,7.00
2023-04-07T13:52:28.962Z,18.52
2023-04-07T13:54:55.336Z,9.05
2023-04-07T13:57:21.835Z,39.83
2023-04-07T13:59:49.640Z,15.35
2023-04-07T14:02:16.671Z,8.00
2023-04-07T14:04:43.305Z,4.65
2023-04-07T14:07:09.691Z,5.03
2023-04-07T14:09:36.408Z,4.75
2023-04-07T14:12:02.698Z,2.95
2023-04-07T14:14:29.418Z,19.13
2023-04-07T14:16:55.752Z,9.10
2023-04-07T14:19:24.947Z,6.50
2023-04-07T14:21:51.567Z,4.43
2023-04-07T14:24:18.040Z,3.25
2023-04-07T14:26:45.379Z,3.50
2023-04-07T14:29:14.966Z,3.10
2023-04-07T14:31:41.350Z,3.40
2023-04-07T14:34:08.199Z,3.10
2023-04-07T14:36:34.669Z,2.45
2023-04-07T14:39:01.153Z,2.67
2023-04-07T14:41:27.828Z,2.20
2023-04-07T14:43:57.380Z,1.80
2023-04-07T14:46:23.910Z,2.20
2023-04-07T14:48:54.087Z,1.55
2023-04-07T14:51:21.314Z,1.67
2023-04-07T14:53:53.208Z,1.63
2023-04-07T14:56:21.130Z,3.20
2023-04-07T14:58:47.412Z,2.30
2023-04-07T15:01:13.756Z,1.75
2023-04-07T15:03:40.277Z,2.22
2023-04-07T15:06:08.683Z,1.33
2023-04-07T15:08:35.405Z,1.30
2023-04-07T15:11:04.622Z,2.40
2023-04-07T15:13:30.996Z,1.05
2023-04-07T15:16:14.772Z,1.02
2023-04-07T15:18:44.314Z,4.20
2023-04-07T15:21:11.969Z,3.03
2023-04-07T15:23:39.032Z,2.50
2023-04-07T15:26:05.962Z,8.15
2023-04-07T15:28:32.346Z,5.50
2023-04-07T15:30:59.377Z,15.48
2023-04-07T15:33:25.826Z,13.75
2023-04-07T15:35:52.138Z,8.18
2023-04-07T15:38:18.597Z,4.68
2023-04-07T15:40:44.890Z,3.55
2023-04-07T15:43:11.365Z,2.22
2023-04-07T15:45:42.732Z,1.77
2023-04-07T15:48:10.165Z,2.28
2023-04-07T15:50:37.054Z,3.05
2023-04-07T15:53:06.826Z,1.17
2023-04-07T15:55:36.699Z,1.30
2023-04-07T15:58:03.527Z,5.43
2023-04-07T16:00:33.228Z,1.83
2023-04-07T16:03:01.918Z,1.58
2023-04-07T16:05:28.371Z,3.00
2023-04-07T16:07:54.692Z,1.25
2023-04-07T16:10:21.100Z,1.42
2023-04-07T16:12:48.245Z,2.42
2023-04-07T16:15:20.528Z,2.47
2023-04-07T16:17:52.844Z,1.92
2023-04-07T16:20:19.272Z,1.83
2023-04-07T16:22:47.979Z,2.10
2023-04-07T16:25:15.908Z,2.05
2023-04-07T16:27:42.419Z,2.00
2023-04-07T16:30:09.189Z,2.35
2023-04-07T16:32:35.568Z,5.80
2023-04-07T16:35:02.654Z,2.50
2023-04-07T16:37:30.192Z,4.35
2023-04-07T16:39:59.618Z,3.88
2023-04-07T16:42:28.521Z,3.58
2023-04-07T16:44:57.520Z,3.95
2023-04-07T16:47:24.661Z,4.13
2023-04-07T16:49:51.172Z,4.97
2023-04-07T16:52:20.460Z,3.83
2023-04-07T16:54:47.044Z,3.65
2023-04-07T16:57:13.536Z,2.30
2023-04-07T16:59:40.029Z,2.08
2023-04-07T17:02:11.600Z,2.42
2023-04-07T17:04:38.962Z,2.28
2023-04-07T17:07:05.958Z,3.05
2023-04-07T17:09:33.079Z,2.17
2023-04-07T17:12:01.126Z,1.73
2023-04-07T17:14:28.467Z,2.10
2023-04-07T17:16:54.762Z,1.88
2023-04-07T17:19:21.262Z,2.00
2023-04-07T17:21:47.873Z,7.88
2023-04-07T17:24:15.794Z,58.10
2023-04-07T17:26:48.726Z,39.15
2023-04-07T17:29:16.284Z,21.48
2023-04-07T17:31:43.125Z,9.77
2023-04-07T17:34:10.486Z,4.80
2023-04-07T17:36:37.549Z,3.95
2023-04-07T17:39:05.147Z,6.45
2023-04-07T17:41:34.349Z,3.67
2023-04-07T17:44:01.257Z,5.28
2023-04-07T17:46:27.831Z,3.35
2023-04-07T17:48:54.982Z,38.40
2023-04-07T17:51:21.542Z,224.77
2023-04-07T17:53:48.516Z,81.32
2023-04-07T17:56:15.176Z,26.73
2023-04-07T17:58:41.695Z,20.52
2023-04-07T18:01:10.447Z,18.50
2023-04-07T18:03:36.902Z,17.75
2023-04-07T18:06:04.390Z,15.02
2023-04-07T18:08:31.514Z,14.68
2023-04-07T18:10:57.902Z,13.10
2023-04-07T18:13:24.260Z,13.40
2023-04-07T18:15:50.725Z,14.80
2023-04-07T18:18:17.170Z,17.08
2023-04-07T18:20:43.500Z,16.70
2023-04-07T18:23:10.493Z,16.45
2023-04-07T18:25:36.875Z,15.07
2023-04-07T18:28:03.856Z,18.98
2023-04-07T18:30:30.258Z,15.23
2023-04-07T18:32:56.580Z,23.13
2023-04-07T18:35:23.048Z,16.60
2023-04-07T18:37:49.605Z,21.48
2023-04-07T18:40:16.238Z,29.42
2023-04-07T18:42:42.656Z,23.20
2023-04-07T18:45:09.286Z,15.65
2023-04-07T18:47:35.672Z,10.65
2023-04-07T18:50:02.033Z,6.30
2023-04-07T18:52:28.356Z,5.20
2023-04-07T18:54:54.682Z,6.97
2023-04-07T18:57:21.211Z,8.32
2023-04-07T18:59:47.513Z,7.72
2023-04-07T19:02:13.969Z,7.85
2023-04-07T19:04:40.561Z,10.18
2023-04-07T19:07:06.914Z,10.52
2023-04-07T19:09:33.258Z,8.63
2023-04-07T19:11:59.669Z,10.25
2023-04-07T19:14:26.092Z,12.25
2023-04-07T19:16:52.637Z,12.68
2023-04-07T19:19:19.040Z,12.27
2023-04-07T19:21:45.847Z,13.32
2023-04-07T19:24:12.165Z,12.85
2023-04-07T19:26:38.547Z,12.98
2023-04-07T19:29:05.009Z,14.88
2023-04-07T19:31:31.456Z,13.77
2023-04-07T19:33:58.438Z,14.60
2023-04-07T19:36:26.411Z,15.23
2023-04-07T19:38:52.886Z,16.20
2023-04-07T19:41:19.265Z,15.13
2023-04-07T19:43:45.596Z,17.73
2023-04-07T19:46:12.005Z,16.70
2023-04-07T19:48:38.432Z,23.40
2023-04-07T19:51:07.111Z,20.58
2023-04-07T19:53:33.809Z,14.73
2023-04-07T19:56:01.712Z,14.10
2023-04-07T19:58:28.210Z,15.93
2023-04-07T20:00:54.985Z,16.67
2023-04-07T20:03:21.998Z,14.73
2023-04-07T20:05:49.556Z,17.77
2023-04-07T20:08:16.325Z,17.95
2023-04-07T20:10:42.624Z,16.90
2023-04-07T20:13:09.524Z,25.23
2023-04-07T20:15:36.103Z,18.58
2023-04-07T20:18:02.696Z,20.45
2023-04-07T20:20:29.246Z,17.90
2023-04-07T20:22:56.103Z,25.13
2023-04-07T20:25:22.568Z,37.03
2023-04-07T20:27:49.948Z,22.90
2023-04-07T20:30:16.377Z,19.48
2023-04-07T20:32:43.408Z,19.20
2023-04-07T20:35:10.719Z,16.48
2023-04-07T20:37:37.027Z,20.80
2023-04-07T20:40:03.941Z,21.05
2023-04-07T20:42:30.323Z,18.40
2023-04-07T20:45:03.329Z,21.67
2023-04-07T20:47:31.004Z,25.67
2023-04-07T20:49:57.421Z,29.17
2023-04-07T20:52:25.818Z,57.15
2023-04-07T20:54:52.216Z,69.53
2023-04-07T20:57:18.564Z,71.22
2023-04-07T20:59:44.884Z,85.13
2023-04-07T21:02:11.614Z,114.72
2023-04-07T21:04:38.208Z,76.32
2023-04-07T21:07:04.508Z,76.93
2023-04-07T21:09:31.170Z,82.18
2023-04-07T21:11:57.500Z,119.40
2023-04-07T21:14:23.826Z,99.90
2023-04-07T21:16:50.259Z,67.43
2023-04-07T21:19:16.559Z,42.42
2023-04-07T21:21:42.868Z,32.83
2023-04-07T21:24:09.182Z,32.25
2023-04-07T21:26:35.965Z,28.40
2023-04-07T21:29:02.246Z,26.83
2023-04-07T21:31:28.587Z,33.55
2023-04-07T21:33:54.929Z,29.02
2023-04-07T21:36:21.255Z,29.60
2023-04-07T21:38:47.973Z,31.48
2023-04-07T21:41:14.491Z,30.00
2023-04-07T21:43:40.904Z,26.15
2023-04-07T21:46:07.311Z,28.45
2023-04-07T21:48:34.691Z,28.60
2023-04-07T21:51:01.383Z,30.08
2023-04-07T21:53:27.741Z,28.83
2023-04-07T21:55:54.019Z,28.58
2023-04-07T21:58:20.500Z,23.48
2023-04-07T22:00:47.571Z,26.00
2023-04-07T22:03:14.810Z,28.27
2023-04-07T22:05:41.225Z,35.85
2023-04-07T22:08:07.553Z,37.00
2023-04-07T22:10:33.894Z,40.28
2023-04-07T22:13:00.193Z,46.95
2023-04-07T22:15:26.519Z,31.33
2023-04-07T22:17:52.919Z,33.47
2023-04-07T22:20:19.338Z,28.25
2023-04-07T22:22:46.427Z,27.90
2023-04-07T22:25:12.742Z,32.97
2023-04-07T22:27:39.065Z,29.42
2023-04-07T22:30:09.650Z,25.90
2023-04-07T22:32:36.417Z,30.15
2023-04-07T22:35:02.803Z,36.25
2023-04-07T22:37:29.227Z,32.50
2023-04-07T22:39:55.741Z,32.92
2023-04-07T22:42:22.089Z,35.90
2023-04-07T22:44:48.416Z,28.17
2023-04-07T22:47:14.716Z,23.23
2023-04-07T22:49:41.905Z,21.88
2023-04-07T22:52:08.200Z,21.42
2023-04-07T22:54:34.520Z,22.10
2023-04-07T22:57:01.987Z,24.88
2023-04-07T22:59:28.312Z,25.42
2023-04-07T23:01:57.135Z,22.85
2023-04-07T23:04:24.421Z,20.58
2023-04-07T23:06:50.726Z,28.13
2023-04-07T23:09:17.115Z,28.52
2023-04-07T23:11:45.818Z,28.75
2023-04-07T23:14:12.123Z,31.50
2023-04-07T23:16:38.489Z,28.42
2023-04-07T23:19:04.829Z,31.95
2023-04-07T23:21:32.049Z,34.65
2023-04-07T23:23:58.542Z,37.70
2023-04-07T23:26:24.863Z,34.50
2023-04-07T23:28:51.558Z,30.42
2023-04-07T23:31:18.100Z,31.98
2023-04-07T23:33:44.441Z,33.38
2023-04-07T23:36:11.778Z,30.63
2023-04-07T23:38:39.468Z,31.85
2023-04-07T23:41:06.863Z,33.50
2023-04-07T23:43:33.472Z,32.63
2023-04-07T23:46:00.333Z,41.58
2023-04-07T23:48:27.086Z,46.78
2023-04-07T23:50:53.810Z,51.47
2023-04-07T23:53:20.131Z,55.35
2023-04-07T23:55:46.490Z,54.22
2023-04-07T23:58:12.763Z,46.92
